createdAt,value
2018-07-03T00:01:11.818Z,17.79
2018-07-03T00:02:11.737Z,17.77
2018-07-03T00:04:05.017Z,17.73
2018-07-03T00:05:04.955Z,17.65
2018-07-03T00:06:58.251Z,17.73
2018-07-03T00:07:58.170Z,17.77
2018-07-03T00:09:51.449Z,17.65
2018-07-03T00:10:51.389Z,17.65
2018-07-03T00:12:44.675Z,17.55
2018-07-03T00:13:44.593Z,17.52
2018-07-03T00:15:37.871Z,17.58
2018-07-03T00:16:37.813Z,17.49
2018-07-03T00:18:31.097Z,17.39
2018-07-03T00:19:31.017Z,17.39
2018-07-03T00:21:24.481Z,17.32
2018-07-03T00:22:24.402Z,17.21
2018-07-03T00:24:17.679Z,17.17
2018-07-03T00:25:17.664Z,17.18
2018-07-03T00:27:10.910Z,17.21
2018-07-03T00:28:10.830Z,17.18
2018-07-03T00:30:04.107Z,17.21
2018-07-03T00:31:04.047Z,17.17
2018-07-03T00:32:57.341Z,17.20
2018-07-03T00:33:57.260Z,17.10
2018-07-03T00:35:50.549Z,17.13
2018-07-03T00:36:50.489Z,17.12
2018-07-03T00:38:43.777Z,17.02
2018-07-03T00:39:43.698Z,16.97
2018-07-03T00:41:37.112Z,16.94
2018-07-03T00:42:36.910Z,16.99
2018-07-03T00:44:30.184Z,17.03
2018-07-03T00:45:30.124Z,16.94
2018-07-03T00:47:23.418Z,17.03
2018-07-03T00:48:23.338Z,16.92
2018-07-03T00:50:16.725Z,16.94
2018-07-03T00:51:16.553Z,16.97
2018-07-03T00:53:09.849Z,17.00
2018-07-03T00:54:09.768Z,17.05
2018-07-03T00:56:03.047Z,16.95
2018-07-03T00:57:02.985Z,17.05
2018-07-03T00:58:57.279Z,16.90
2018-07-03T00:59:57.199Z,16.97
2018-07-03T01:01:50.580Z,16.90
2018-07-03T01:02:50.416Z,16.88
2018-07-03T01:04:43.708Z,16.87
2018-07-03T01:05:43.629Z,16.85
2018-07-03T01:07:36.926Z,16.85
2018-07-03T01:08:36.844Z,16.90
2018-07-03T01:10:30.120Z,16.90
2018-07-03T01:11:30.060Z,16.87
2018-07-03T01:13:23.354Z,16.80
2018-07-03T01:14:23.273Z,16.73
2018-07-03T01:16:16.549Z,16.82
2018-07-03T01:17:16.487Z,16.80
2018-07-03T01:19:09.783Z,16.87
2018-07-03T01:20:09.701Z,16.81
2018-07-03T01:22:02.968Z,16.66
2018-07-03T01:23:02.907Z,16.76
2018-07-03T01:24:56.200Z,16.72
2018-07-03T01:25:56.118Z,16.69
2018-07-03T01:27:49.518Z,16.74
2018-07-03T01:28:49.323Z,16.65
2018-07-03T01:30:42.601Z,16.69
2018-07-03T01:31:42.539Z,16.73
2018-07-03T01:33:35.835Z,16.66
2018-07-03T01:34:35.753Z,16.62
2018-07-03T01:36:29.029Z,16.65
2018-07-03T01:37:28.966Z,16.58
2018-07-03T01:39:22.261Z,16.59
2018-07-03T01:40:22.181Z,16.57
2018-07-03T01:42:15.461Z,16.54
2018-07-03T01:43:15.399Z,16.54
2018-07-03T01:45:08.695Z,16.55
2018-07-03T01:46:08.612Z,16.48
2018-07-03T01:48:01.994Z,16.52
2018-07-03T01:49:01.818Z,16.47
2018-07-03T01:50:55.113Z,16.47
2018-07-03T01:51:55.032Z,16.33
2018-07-03T01:53:48.479Z,16.52
2018-07-03T01:54:48.396Z,16.44
2018-07-03T01:56:41.673Z,16.39
2018-07-03T01:57:41.610Z,16.42
2018-07-03T01:59:34.918Z,16.40
2018-07-03T02:00:34.823Z,16.40
2018-07-03T02:02:28.100Z,16.36
2018-07-03T02:03:28.034Z,16.48
2018-07-03T02:05:21.331Z,16.33
2018-07-03T02:06:21.249Z,16.36
2018-07-03T02:08:14.515Z,16.37
2018-07-03T02:09:14.455Z,16.36
2018-07-03T02:11:07.745Z,16.33
2018-07-03T02:12:07.665Z,16.26
2018-07-03T02:14:00.963Z,16.22
2018-07-03T02:15:00.878Z,16.22
2018-07-03T02:16:54.156Z,16.25
2018-07-03T02:17:54.094Z,16.22
2018-07-03T02:19:47.474Z,16.16
2018-07-03T02:20:47.391Z,16.17
2018-07-03T02:22:40.668Z,16.07
2018-07-03T02:23:40.606Z,16.10
2018-07-03T02:25:33.899Z,16.11
2018-07-03T02:26:33.818Z,16.08
2018-07-03T02:28:27.201Z,16.08
2018-07-03T02:29:27.022Z,15.99
2018-07-03T02:31:20.420Z,15.99
2018-07-03T02:32:20.234Z,16.07
2018-07-03T02:34:13.512Z,15.92
2018-07-03T02:35:13.448Z,15.91
2018-07-03T02:37:06.743Z,15.91
2018-07-03T02:38:06.660Z,15.92
2018-07-03T02:39:59.934Z,15.88
2018-07-03T02:40:59.873Z,15.91
2018-07-03T02:42:53.164Z,15.89
2018-07-03T02:43:53.083Z,15.84
2018-07-03T02:45:46.360Z,15.81
2018-07-03T02:46:46.297Z,15.92
2018-07-03T02:48:39.584Z,15.84
2018-07-03T02:49:39.503Z,15.78
2018-07-03T02:51:32.808Z,15.81
2018-07-03T02:52:32.719Z,15.83
2018-07-03T02:54:25.990Z,15.84
2018-07-03T02:55:25.927Z,15.88
2018-07-03T02:57:19.222Z,15.83
2018-07-03T02:58:19.137Z,15.80
2018-07-03T03:00:12.458Z,15.84
2018-07-03T03:01:12.396Z,15.77
2018-07-03T03:03:05.699Z,15.73
2018-07-03T03:04:05.606Z,15.77
2018-07-03T03:05:58.881Z,15.78
2018-07-03T03:06:58.826Z,15.78
2018-07-03T03:08:52.114Z,15.71
2018-07-03T03:09:52.032Z,15.73
2018-07-03T03:11:45.412Z,15.73
2018-07-03T03:12:45.239Z,15.71
2018-07-03T03:14:38.644Z,15.73
2018-07-03T03:15:38.444Z,15.67
2018-07-03T03:17:31.749Z,15.58
2018-07-03T03:18:31.655Z,15.63
2018-07-03T03:20:24.930Z,15.56
2018-07-03T03:21:24.866Z,15.68
2018-07-03T03:23:18.173Z,15.59
2018-07-03T03:24:18.078Z,15.59
2018-07-03T03:26:11.352Z,15.59
2018-07-03T03:27:11.290Z,15.58
2018-07-03T03:29:04.583Z,15.59
2018-07-03T03:30:04.504Z,15.59
2018-07-03T03:31:57.774Z,15.60
2018-07-03T03:32:57.716Z,15.58
2018-07-03T03:34:51.006Z,15.49
2018-07-03T03:35:50.921Z,15.49
2018-07-03T03:37:44.188Z,15.51
2018-07-03T03:38:44.128Z,15.52
2018-07-03T03:40:37.418Z,15.51
2018-07-03T03:41:37.336Z,15.53
2018-07-03T03:43:30.628Z,15.49
2018-07-03T03:44:30.552Z,15.40
2018-07-03T03:46:23.819Z,15.53
2018-07-03T03:47:23.758Z,15.47
2018-07-03T03:49:17.051Z,15.43
2018-07-03T03:50:16.969Z,15.34
2018-07-03T03:52:10.452Z,15.31
2018-07-03T03:53:10.388Z,15.25
2018-07-03T03:55:03.683Z,15.19
2018-07-03T03:56:03.599Z,15.22
2018-07-03T03:57:56.865Z,15.22
2018-07-03T03:58:56.799Z,15.19
2018-07-03T04:00:50.113Z,15.27
2018-07-03T04:01:50.013Z,15.19
2018-07-03T04:03:43.304Z,15.13
2018-07-03T04:04:43.233Z,15.10
2018-07-03T04:06:36.497Z,15.18
2018-07-03T04:07:36.431Z,15.19
2018-07-03T04:09:29.724Z,15.13
2018-07-03T04:10:29.641Z,15.08
2018-07-03T04:12:22.913Z,15.19
2018-07-03T04:13:22.851Z,15.13
2018-07-03T04:15:16.144Z,15.20
2018-07-03T04:16:16.064Z,15.22
2018-07-03T04:18:09.332Z,15.16
2018-07-03T04:19:09.266Z,15.18
2018-07-03T04:21:02.667Z,15.16
2018-07-03T04:22:02.479Z,15.18
2018-07-03T04:23:55.779Z,15.16
2018-07-03T04:24:55.683Z,15.22
2018-07-03T04:26:48.959Z,15.19
2018-07-03T04:27:48.899Z,15.23
2018-07-03T04:29:42.190Z,15.20
2018-07-03T04:30:42.110Z,15.34
2018-07-03T04:32:35.454Z,15.30
2018-07-03T04:33:35.387Z,15.40
2018-07-03T04:35:28.681Z,15.40
2018-07-03T04:36:28.598Z,15.41
2018-07-03T04:38:21.864Z,15.38
2018-07-03T04:39:21.802Z,15.45
2018-07-03T04:41:15.104Z,15.49
2018-07-03T04:42:15.020Z,15.49
2018-07-03T04:44:08.458Z,15.44
2018-07-03T04:45:08.396Z,15.59
2018-07-03T04:47:01.689Z,15.58
2018-07-03T04:48:01.608Z,15.60
2018-07-03T04:49:55.007Z,15.63
2018-07-03T04:50:54.825Z,15.63
2018-07-03T04:52:48.197Z,15.60
2018-07-03T04:53:48.031Z,15.68
2018-07-03T04:55:41.426Z,15.58
2018-07-03T04:56:41.240Z,15.58
2018-07-03T04:58:34.507Z,15.71
2018-07-03T04:59:34.444Z,15.70
2018-07-03T05:01:27.738Z,15.73
2018-07-03T05:02:27.654Z,15.80
2018-07-03T05:04:20.931Z,15.92
2018-07-03T05:05:20.866Z,15.92
2018-07-03T05:07:14.264Z,15.93
2018-07-03T05:08:14.077Z,15.95
2018-07-03T05:10:07.397Z,15.99
2018-07-03T05:11:07.289Z,16.06
2018-07-03T05:13:00.568Z,16.16
2018-07-03T05:14:00.502Z,16.14
2018-07-03T05:15:53.797Z,16.07
2018-07-03T05:16:53.717Z,16.13
2018-07-03T05:18:46.993Z,16.21
2018-07-03T05:19:46.926Z,16.21
2018-07-03T05:21:40.223Z,16.27
2018-07-03T05:22:40.139Z,16.27
2018-07-03T05:24:33.447Z,16.36
2018-07-03T05:25:33.353Z,16.27
2018-07-03T05:27:26.649Z,16.44
2018-07-03T05:28:26.570Z,16.42
2018-07-03T05:30:19.846Z,16.44
2018-07-03T05:31:19.841Z,16.57
2018-07-03T05:33:13.077Z,16.67
2018-07-03T05:34:12.996Z,16.77
2018-07-03T05:36:06.481Z,16.81
2018-07-03T05:37:06.413Z,16.82
2018-07-03T05:39:00.675Z,16.87
2018-07-03T05:40:00.611Z,16.94
2018-07-03T05:41:53.906Z,17.10
2018-07-03T05:42:53.882Z,17.20
2018-07-03T05:44:47.099Z,17.32
2018-07-03T05:45:47.050Z,17.25
2018-07-03T05:47:40.479Z,17.32
2018-07-03T05:48:40.395Z,17.32
2018-07-03T05:50:33.778Z,17.55
2018-07-03T05:51:33.608Z,17.58
2018-07-03T05:53:27.011Z,17.54
2018-07-03T05:54:26.825Z,17.60
2018-07-03T05:56:20.114Z,17.79
2018-07-03T05:57:20.040Z,17.83
2018-07-03T05:59:13.477Z,17.84
2018-07-03T06:00:13.392Z,17.86
2018-07-03T06:02:06.687Z,17.90
2018-07-03T06:03:06.607Z,17.94
2018-07-03T06:04:59.884Z,18.08
2018-07-03T06:05:59.822Z,18.13
2018-07-03T06:07:53.109Z,18.34
2018-07-03T06:08:53.029Z,18.41
2018-07-03T06:10:46.310Z,18.44
2018-07-03T06:11:46.245Z,18.60
2018-07-03T06:13:39.542Z,18.72
2018-07-03T06:14:39.464Z,18.76
2018-07-03T06:16:32.743Z,19.25
2018-07-03T06:17:32.683Z,19.60
2018-07-03T06:19:25.984Z,20.86
2018-07-03T06:20:25.901Z,21.64
2018-07-03T06:22:19.201Z,22.45
2018-07-03T06:23:19.141Z,22.61
2018-07-03T06:25:12.551Z,23.10
2018-07-03T06:26:12.380Z,23.59
2018-07-03T06:28:05.685Z,23.74
2018-07-03T06:29:05.648Z,23.85
2018-07-03T06:30:58.917Z,23.87
2018-07-03T06:31:58.863Z,24.04
2018-07-03T06:33:52.180Z,24.67
2018-07-03T06:34:52.114Z,24.63
2018-07-03T06:36:45.513Z,24.09
2018-07-03T06:37:45.370Z,24.46
2018-07-03T06:39:38.694Z,25.07
2018-07-03T06:40:38.625Z,25.02
2018-07-03T06:42:31.935Z,24.85
2018-07-03T06:43:31.899Z,24.96
2018-07-03T06:45:25.206Z,24.83
2018-07-03T06:46:25.136Z,25.32
2018-07-03T06:48:18.505Z,25.86
2018-07-03T06:49:18.439Z,26.24
2018-07-03T06:51:12.844Z,26.04
2018-07-03T06:52:12.691Z,25.51
2018-07-03T06:54:06.011Z,25.62
2018-07-03T06:55:05.945Z,25.39
2018-07-03T06:56:59.244Z,25.14
2018-07-03T06:57:59.232Z,25.49
2018-07-03T06:59:52.623Z,25.48
2018-07-03T07:00:52.456Z,25.33
2018-07-03T07:02:45.753Z,25.14
2018-07-03T07:03:45.707Z,24.63
2018-07-03T07:05:40.029Z,24.80
2018-07-03T07:06:39.962Z,25.12
2018-07-03T07:08:34.550Z,25.75
2018-07-03T07:09:34.502Z,25.81
2018-07-03T07:11:27.728Z,26.63
2018-07-03T07:12:27.680Z,26.59
2018-07-03T07:14:21.001Z,26.15
2018-07-03T07:15:20.936Z,26.23
2018-07-03T07:17:14.240Z,26.12
2018-07-03T07:18:14.193Z,26.26
2018-07-03T07:20:07.511Z,26.09
2018-07-03T07:21:07.441Z,25.69
2018-07-03T07:23:00.748Z,25.82
2018-07-03T07:24:00.701Z,26.07
2018-07-03T07:25:55.019Z,26.74
2018-07-03T07:26:54.959Z,26.78
2018-07-03T07:28:48.384Z,25.86
2018-07-03T07:29:48.307Z,25.67
2018-07-03T07:31:41.606Z,25.29
2018-07-03T07:32:41.560Z,25.49
2018-07-03T07:34:34.879Z,26.07
2018-07-03T07:35:34.813Z,26.17
2018-07-03T07:37:28.113Z,26.69
2018-07-03T07:38:28.067Z,26.87
2018-07-03T07:40:21.389Z,27.09
2018-07-03T07:41:21.320Z,26.20
2018-07-03T07:43:15.620Z,26.42
2018-07-03T07:44:15.574Z,26.09
2018-07-03T07:46:08.890Z,26.12
2018-07-03T07:47:08.825Z,25.70
2018-07-03T07:49:02.131Z,25.64
2018-07-03T07:50:02.081Z,25.59
2018-07-03T07:51:55.398Z,25.63
2018-07-03T07:52:55.334Z,25.63
2018-07-03T07:54:48.671Z,25.86
2018-07-03T07:55:48.586Z,25.86
2018-07-03T07:57:41.889Z,25.94
2018-07-03T07:58:41.846Z,26.32
2018-07-03T08:00:35.158Z,26.84
2018-07-03T08:01:35.094Z,27.06
2018-07-03T08:03:28.390Z,27.11
2018-07-03T08:04:28.345Z,27.15
2018-07-03T08:06:22.663Z,26.64
2018-07-03T08:07:22.600Z,26.47
2018-07-03T08:09:16.508Z,27.11
2018-07-03T08:10:15.849Z,27.42
2018-07-03T08:12:10.169Z,27.00
2018-07-03T08:13:10.107Z,26.63
2018-07-03T08:15:03.418Z,26.76
2018-07-03T08:16:03.352Z,26.60
2018-07-03T08:17:57.648Z,26.84
2018-07-03T08:18:57.601Z,26.97
2018-07-03T08:20:50.914Z,27.43
2018-07-03T08:21:50.849Z,27.49
2018-07-03T08:23:44.142Z,27.09
2018-07-03T08:24:44.094Z,27.00
2018-07-03T08:26:37.447Z,27.71
2018-07-03T08:27:37.340Z,27.93
2018-07-03T08:29:30.635Z,27.31
2018-07-03T08:30:30.590Z,27.31
2018-07-03T08:32:23.927Z,27.34
2018-07-03T08:33:23.830Z,27.62
2018-07-03T08:35:17.153Z,27.53
2018-07-03T08:36:17.072Z,27.45
2018-07-03T08:38:10.366Z,27.94
2018-07-03T08:39:10.319Z,28.17
2018-07-03T08:41:03.625Z,28.20
2018-07-03T08:42:03.550Z,28.08
2018-07-03T08:43:56.848Z,27.86
2018-07-03T08:44:56.795Z,28.01
2018-07-03T08:46:50.109Z,28.55
2018-07-03T08:47:50.055Z,28.08
2018-07-03T08:49:43.329Z,28.05
2018-07-03T08:50:43.277Z,28.01
2018-07-03T08:52:36.589Z,28.35
2018-07-03T08:53:36.545Z,28.26
2018-07-03T08:55:29.836Z,28.53
2018-07-03T08:56:29.772Z,28.78
2018-07-03T08:58:23.123Z,28.36
2018-07-03T08:59:22.997Z,27.99
2018-07-03T09:01:16.369Z,28.38
2018-07-03T09:02:16.299Z,28.63
2018-07-03T09:04:09.592Z,29.05
2018-07-03T09:05:09.538Z,28.85
2018-07-03T09:07:02.843Z,28.79
2018-07-03T09:08:02.777Z,28.55
2018-07-03T09:09:56.067Z,27.99
2018-07-03T09:10:56.018Z,27.87
2018-07-03T09:12:49.326Z,28.26
2018-07-03T09:13:49.273Z,28.35
2018-07-03T09:15:42.550Z,28.55
2018-07-03T09:16:42.494Z,28.97
2018-07-03T09:18:35.907Z,29.63
2018-07-03T09:19:35.739Z,29.51
2018-07-03T09:21:29.048Z,28.88
2018-07-03T09:22:28.979Z,28.42
2018-07-03T09:24:22.348Z,27.98
2018-07-03T09:25:22.297Z,28.55
2018-07-03T09:27:15.606Z,29.20
2018-07-03T09:28:15.538Z,29.54
2018-07-03T09:30:08.826Z,29.76
2018-07-03T09:31:08.777Z,29.66
2018-07-03T09:33:02.092Z,28.75
2018-07-03T09:34:02.017Z,28.63
2018-07-03T09:35:56.912Z,28.78
2018-07-03T09:36:56.105Z,29.14
2018-07-03T09:38:49.433Z,29.43
2018-07-03T09:39:49.365Z,29.79
2018-07-03T09:41:42.760Z,29.63
2018-07-03T09:42:42.615Z,29.42
2018-07-03T09:44:35.911Z,29.67
2018-07-03T09:45:35.842Z,29.43
2018-07-03T09:47:29.152Z,29.75
2018-07-03T09:48:29.085Z,30.32
2018-07-03T09:50:22.371Z,31.03
2018-07-03T09:51:22.325Z,31.31
2018-07-03T09:53:15.637Z,30.37
2018-07-03T09:54:15.560Z,30.60
2018-07-03T09:56:08.861Z,30.77
2018-07-03T09:57:08.810Z,30.96
2018-07-03T09:59:02.121Z,30.62
2018-07-03T10:00:02.055Z,30.47
2018-07-03T10:01:56.196Z,30.71
2018-07-03T10:02:56.151Z,30.81
2018-07-03T10:04:49.563Z,31.33
2018-07-03T10:05:49.388Z,31.78
2018-07-03T10:07:42.700Z,32.52
2018-07-03T10:08:42.631Z,32.65
2018-07-03T10:10:35.924Z,32.15
2018-07-03T10:11:35.875Z,31.49
2018-07-03T10:13:29.190Z,29.88
2018-07-03T10:14:29.123Z,30.16
2018-07-03T10:16:22.417Z,30.67
2018-07-03T10:17:22.371Z,29.82
2018-07-03T10:19:15.803Z,30.34
2018-07-03T10:20:15.629Z,31.31
2018-07-03T10:22:09.518Z,31.37
2018-07-03T10:23:08.868Z,31.34
2018-07-03T10:25:02.175Z,30.48
2018-07-03T10:26:02.113Z,30.52
2018-07-03T10:27:55.429Z,30.82
2018-07-03T10:28:55.358Z,31.47
2018-07-03T10:30:48.656Z,32.38
2018-07-03T10:31:48.608Z,32.09
2018-07-03T10:33:41.924Z,31.80
2018-07-03T10:34:41.883Z,31.63
2018-07-03T10:36:35.150Z,31.60
2018-07-03T10:37:35.104Z,31.58
2018-07-03T10:39:28.415Z,32.30
2018-07-03T10:40:28.348Z,32.38
2018-07-03T10:42:21.661Z,31.01
2018-07-03T10:43:21.605Z,30.64
2018-07-03T10:45:14.921Z,30.04
2018-07-03T10:46:14.855Z,30.04
2018-07-03T10:48:08.181Z,30.64
2018-07-03T10:49:08.105Z,31.23
2018-07-03T10:51:01.399Z,30.28
2018-07-03T10:52:01.350Z,30.02
2018-07-03T10:53:54.665Z,29.88
2018-07-03T10:54:54.598Z,29.89
2018-07-03T10:56:47.894Z,30.59
2018-07-03T10:57:47.845Z,30.75
2018-07-03T10:59:41.166Z,30.35
2018-07-03T11:00:41.092Z,29.33
2018-07-03T11:02:34.493Z,29.43
2018-07-03T11:03:34.337Z,29.67
2018-07-03T11:05:27.651Z,30.26
2018-07-03T11:06:27.579Z,30.57
2018-07-03T11:08:20.882Z,30.69
2018-07-03T11:09:20.829Z,30.11
2018-07-03T11:11:14.146Z,30.06
2018-07-03T11:12:14.077Z,30.31
2018-07-03T11:14:07.451Z,31.21
2018-07-03T11:15:07.324Z,31.25
2018-07-03T11:17:00.627Z,31.25
2018-07-03T11:18:00.569Z,31.43
2018-07-03T11:19:54.033Z,30.77
2018-07-03T11:20:53.820Z,30.91
2018-07-03T11:22:47.112Z,31.06
2018-07-03T11:23:47.063Z,30.96
2018-07-03T11:25:40.495Z,30.57
2018-07-03T11:26:40.317Z,29.66
2018-07-03T11:28:33.610Z,29.30
2018-07-03T11:29:33.559Z,29.55
2018-07-03T11:31:26.873Z,29.94
2018-07-03T11:32:26.802Z,29.91
2018-07-03T11:34:20.136Z,30.02
2018-07-03T11:35:20.050Z,29.75
2018-07-03T11:37:13.453Z,30.11
2018-07-03T11:38:13.297Z,30.26
2018-07-03T11:40:06.608Z,30.18
2018-07-03T11:41:06.541Z,30.37
2018-07-03T11:42:59.864Z,30.64
2018-07-03T11:43:59.793Z,30.71
2018-07-03T11:45:53.206Z,30.57
2018-07-03T11:46:53.033Z,30.44
2018-07-03T11:48:46.351Z,30.51
2018-07-03T11:49:46.300Z,30.34
2018-07-03T11:51:39.623Z,29.40
2018-07-03T11:52:39.550Z,29.18
2018-07-03T11:54:32.874Z,28.61
2018-07-03T11:55:32.791Z,28.39
2018-07-03T11:57:26.092Z,28.65
2018-07-03T11:58:26.048Z,28.72
2018-07-03T12:00:20.403Z,28.24
2018-07-03T12:01:20.363Z,28.24
2018-07-03T12:03:13.706Z,28.41
2018-07-03T12:04:13.550Z,28.67
2018-07-03T12:06:06.962Z,28.88
2018-07-03T12:07:06.786Z,28.86
2018-07-03T12:09:00.089Z,28.75
2018-07-03T12:10:00.051Z,28.76
2018-07-03T12:11:53.348Z,28.60
2018-07-03T12:12:53.278Z,28.31
2018-07-03T12:14:46.564Z,28.21
2018-07-03T12:15:46.513Z,28.11
2018-07-03T12:17:39.819Z,28.01
2018-07-03T12:18:39.749Z,28.05
2018-07-03T12:20:33.163Z,28.24
2018-07-03T12:21:32.996Z,28.24
2018-07-03T12:23:26.391Z,28.41
2018-07-03T12:24:26.294Z,28.17
2018-07-03T12:26:19.598Z,28.20
2018-07-03T12:27:19.525Z,28.28
2018-07-03T12:29:12.870Z,28.36
2018-07-03T12:30:12.764Z,28.23
2018-07-03T12:32:06.066Z,27.53
2018-07-03T12:33:05.997Z,27.59
2018-07-03T12:34:59.392Z,27.93
2018-07-03T12:35:59.231Z,28.09
2018-07-03T12:37:52.537Z,28.30
2018-07-03T12:38:52.469Z,28.33
2018-07-03T12:40:45.753Z,28.23
2018-07-03T12:41:45.701Z,28.24
2018-07-03T12:43:39.010Z,28.41
2018-07-03T12:44:38.934Z,28.54
2018-07-03T12:46:32.349Z,28.73
2018-07-03T12:47:32.168Z,28.76
2018-07-03T12:49:25.505Z,28.85
2018-07-03T12:50:25.453Z,28.60
2018-07-03T12:52:18.757Z,28.35
2018-07-03T12:53:18.686Z,28.35
2018-07-03T12:55:11.972Z,28.11
2018-07-03T12:56:11.920Z,28.24
2018-07-03T12:58:05.337Z,28.17
2018-07-03T12:59:05.155Z,28.18
2018-07-03T13:00:58.556Z,28.57
2018-07-03T13:01:58.393Z,28.55
2018-07-03T13:03:51.695Z,28.58
2018-07-03T13:04:51.628Z,28.64
2018-07-03T13:06:45.038Z,29.05
2018-07-03T13:07:44.858Z,29.13
2018-07-03T13:09:39.166Z,29.13
2018-07-03T13:10:39.091Z,29.14
2018-07-03T13:12:32.486Z,29.26
2018-07-03T13:13:32.325Z,29.20
2018-07-03T13:15:25.741Z,28.61
2018-07-03T13:16:25.562Z,28.42
2018-07-03T13:18:18.851Z,28.86
2018-07-03T13:19:18.798Z,28.80
2018-07-03T13:21:12.107Z,28.65
2018-07-03T13:22:12.034Z,28.75
2018-07-03T13:24:05.322Z,28.88
2018-07-03T13:25:05.269Z,29.03
2018-07-03T13:26:58.687Z,28.91
2018-07-03T13:27:58.514Z,28.94
2018-07-03T13:29:52.049Z,28.98
2018-07-03T13:30:51.780Z,29.06
2018-07-03T13:32:45.112Z,29.03
2018-07-03T13:33:45.023Z,28.98
2018-07-03T13:35:38.345Z,29.24
2018-07-03T13:36:38.297Z,29.29
2018-07-03T13:38:31.621Z,29.14
2018-07-03T13:39:31.570Z,29.15
2018-07-03T13:41:24.845Z,29.06
2018-07-03T13:42:24.788Z,28.88
2018-07-03T13:44:18.106Z,28.76
2018-07-03T13:45:18.037Z,28.83
2018-07-03T13:47:11.322Z,29.01
2018-07-03T13:48:11.309Z,29.06
2018-07-03T13:50:04.586Z,28.94
2018-07-03T13:51:04.514Z,29.02
2018-07-03T13:52:57.802Z,29.08
2018-07-03T13:53:57.753Z,29.15
2018-07-03T13:55:51.072Z,29.28
2018-07-03T13:56:50.997Z,29.24
2018-07-03T13:58:44.371Z,29.17
2018-07-03T13:59:44.295Z,28.98
2018-07-03T14:01:37.594Z,28.75
2018-07-03T14:02:37.540Z,28.76
2018-07-03T14:04:30.846Z,29.02
2018-07-03T14:05:30.779Z,29.03
2018-07-03T14:07:24.075Z,29.15
2018-07-03T14:08:24.019Z,29.17
2018-07-03T14:10:17.435Z,29.10
2018-07-03T14:11:17.266Z,29.30
2018-07-03T14:13:10.551Z,29.33
2018-07-03T14:14:10.502Z,29.45
2018-07-03T14:16:03.820Z,29.33
2018-07-03T14:17:03.749Z,29.17
2018-07-03T14:18:57.045Z,29.28
2018-07-03T14:19:56.997Z,29.33
2018-07-03T14:21:50.418Z,29.17
2018-07-03T14:22:50.293Z,29.42
2018-07-03T14:24:43.608Z,29.58
2018-07-03T14:25:43.545Z,29.60
2018-07-03T14:27:36.933Z,29.18
2018-07-03T14:28:36.786Z,29.20
2018-07-03T14:30:30.703Z,29.14
2018-07-03T14:31:30.033Z,28.95
2018-07-03T14:33:23.429Z,28.90
2018-07-03T14:34:23.277Z,28.78
2018-07-03T14:36:16.704Z,28.70
2018-07-03T14:37:16.533Z,28.80
2018-07-03T14:39:09.829Z,28.86
2018-07-03T14:40:09.777Z,28.83
2018-07-03T14:42:03.095Z,28.90
2018-07-03T14:43:03.025Z,28.92
2018-07-03T14:44:56.349Z,28.97
2018-07-03T14:45:56.320Z,29.02
2018-07-03T14:47:49.601Z,28.76
2018-07-03T14:48:49.531Z,28.65
2018-07-03T14:50:42.966Z,28.80
2018-07-03T14:51:42.777Z,28.80
2018-07-03T14:53:36.083Z,29.15
2018-07-03T14:54:36.032Z,29.20
2018-07-03T14:56:29.344Z,29.17
2018-07-03T14:57:29.274Z,29.15
2018-07-03T14:59:22.575Z,29.10
2018-07-03T15:00:22.523Z,29.23
2018-07-03T15:02:15.865Z,29.54
2018-07-03T15:03:15.768Z,29.66
2018-07-03T15:05:09.067Z,29.81
2018-07-03T15:06:09.017Z,29.82
2018-07-03T15:08:02.373Z,29.60
2018-07-03T15:09:02.305Z,29.60
2018-07-03T15:10:55.615Z,29.20
2018-07-03T15:11:55.542Z,28.80
2018-07-03T15:13:48.838Z,28.65
2018-07-03T15:14:48.832Z,28.72
2018-07-03T15:16:42.107Z,28.90
2018-07-03T15:17:42.035Z,28.95
2018-07-03T15:19:35.330Z,29.13
2018-07-03T15:20:35.279Z,29.15
2018-07-03T15:22:28.598Z,29.35
2018-07-03T15:23:28.525Z,29.29
2018-07-03T15:25:21.823Z,29.18
2018-07-03T15:26:21.773Z,29.18
2018-07-03T15:28:15.075Z,29.17
2018-07-03T15:29:15.007Z,29.30
2018-07-03T15:31:08.421Z,29.28
2018-07-03T15:32:08.297Z,29.40
2018-07-03T15:34:01.628Z,29.48
2018-07-03T15:35:01.577Z,29.52
2018-07-03T15:36:54.859Z,29.57
2018-07-03T15:37:54.788Z,29.48
2018-07-03T15:39:49.199Z,29.55
2018-07-03T15:40:49.054Z,29.43
2018-07-03T15:42:42.406Z,28.92
2018-07-03T15:43:42.309Z,28.92
2018-07-03T15:45:35.583Z,29.23
2018-07-03T15:46:35.531Z,29.39
2018-07-03T15:48:28.840Z,29.06
2018-07-03T15:49:28.769Z,29.15
2018-07-03T15:51:22.081Z,29.21
2018-07-03T15:52:22.057Z,29.30
2018-07-03T15:54:15.326Z,29.32
2018-07-03T15:55:15.251Z,29.30
2018-07-03T15:57:08.549Z,29.36
2018-07-03T15:58:08.497Z,29.29
2018-07-03T16:00:01.847Z,29.30
2018-07-03T16:01:01.748Z,29.14
2018-07-03T16:02:56.085Z,29.29
2018-07-03T16:03:56.013Z,29.32
2018-07-03T16:05:49.300Z,29.29
2018-07-03T16:06:49.247Z,29.40
2018-07-03T16:08:42.575Z,29.58
2018-07-03T16:09:42.489Z,29.54
2018-07-03T16:11:35.898Z,29.51
2018-07-03T16:12:35.736Z,29.54
2018-07-03T16:14:29.052Z,29.67
2018-07-03T16:15:28.983Z,29.77
2018-07-03T16:17:22.345Z,29.51
2018-07-03T16:18:22.294Z,29.35
2018-07-03T16:20:15.608Z,29.26
2018-07-03T16:21:15.539Z,29.30
2018-07-03T16:23:08.859Z,29.60
2018-07-03T16:24:08.786Z,29.42
2018-07-03T16:26:02.088Z,29.18
2018-07-03T16:27:02.033Z,29.28
2018-07-03T16:28:55.347Z,29.33
2018-07-03T16:29:55.282Z,29.17
2018-07-03T16:31:48.580Z,29.21
2018-07-03T16:32:48.526Z,29.17
2018-07-03T16:34:41.845Z,29.32
2018-07-03T16:35:41.771Z,29.33
2018-07-03T16:37:35.167Z,29.43
2018-07-03T16:38:35.027Z,29.57
2018-07-03T16:40:27.846Z,29.65
2018-07-03T16:41:27.776Z,29.47
2018-07-03T16:43:21.062Z,29.63
2018-07-03T16:44:21.012Z,29.42
2018-07-03T16:46:14.328Z,28.94
2018-07-03T16:47:14.258Z,28.91
2018-07-03T16:49:07.574Z,29.02
2018-07-03T16:50:07.503Z,29.10
2018-07-03T16:52:00.801Z,29.30
2018-07-03T16:53:00.756Z,29.40
2018-07-03T16:54:54.066Z,29.61
2018-07-03T16:55:53.995Z,29.61
2018-07-03T16:57:47.285Z,29.75
2018-07-03T16:58:47.240Z,29.70
2018-07-03T17:00:40.559Z,29.82
2018-07-03T17:01:40.482Z,29.88
2018-07-03T17:03:33.782Z,29.70
2018-07-03T17:04:33.729Z,29.75
2018-07-03T17:06:27.043Z,29.69
2018-07-03T17:07:26.977Z,29.73
2018-07-03T17:09:20.304Z,29.61
2018-07-03T17:10:20.224Z,29.30
2018-07-03T17:12:13.521Z,29.20
2018-07-03T17:13:13.469Z,29.18
2018-07-03T17:15:06.787Z,29.28
2018-07-03T17:16:06.716Z,29.30
2018-07-03T17:18:00.012Z,29.21
2018-07-03T17:18:59.955Z,29.13
2018-07-03T17:20:53.271Z,29.13
2018-07-03T17:21:53.201Z,29.13
2018-07-03T17:23:46.500Z,29.28
2018-07-03T17:24:46.445Z,29.29
2018-07-03T17:26:39.763Z,29.26
2018-07-03T17:27:39.702Z,29.15
2018-07-03T17:29:32.992Z,29.10
2018-07-03T17:30:32.938Z,29.13
2018-07-03T17:32:26.264Z,29.21
2018-07-03T17:33:26.191Z,29.26
2018-07-03T17:35:19.509Z,29.11
2018-07-03T17:36:19.434Z,29.10
2018-07-03T17:38:12.754Z,28.75
2018-07-03T17:39:12.705Z,28.65
2018-07-03T17:41:06.020Z,28.54
2018-07-03T17:42:05.949Z,28.49
2018-07-03T17:43:59.474Z,28.57
2018-07-03T17:44:59.420Z,28.64
2018-07-03T17:46:52.734Z,28.65
2018-07-03T17:47:52.665Z,28.64
2018-07-03T17:49:45.960Z,28.75
2018-07-03T17:50:45.910Z,28.73
2018-07-03T17:52:39.225Z,28.78
2018-07-03T17:53:39.152Z,28.79
2018-07-03T17:55:32.455Z,28.58
2018-07-03T17:56:32.401Z,28.51
2018-07-03T17:58:25.707Z,28.46
2018-07-03T17:59:25.726Z,28.61
2018-07-03T18:01:18.946Z,28.57
2018-07-03T18:02:18.875Z,28.55
2018-07-03T18:04:12.171Z,28.64
2018-07-03T18:05:12.166Z,28.68
2018-07-03T18:07:05.433Z,28.46
2018-07-03T18:08:05.363Z,28.53
2018-07-03T18:09:58.757Z,28.33
2018-07-03T18:10:58.616Z,28.26
2018-07-03T18:12:52.023Z,28.42
2018-07-03T18:13:51.850Z,28.36
2018-07-03T18:15:45.151Z,28.30
2018-07-03T18:16:45.093Z,28.36
2018-07-03T18:18:38.502Z,28.35
2018-07-03T18:19:38.426Z,28.24
2018-07-03T18:21:31.783Z,28.27
2018-07-03T18:22:31.669Z,28.30
2018-07-03T18:24:24.975Z,28.17
2018-07-03T18:25:24.921Z,28.02
2018-07-03T18:27:19.276Z,27.99
2018-07-03T18:28:19.182Z,28.03
2018-07-03T18:30:12.492Z,28.02
2018-07-03T18:31:12.423Z,27.90
2018-07-03T18:33:06.775Z,27.90
2018-07-03T18:34:06.666Z,27.81
2018-07-03T18:35:59.969Z,27.89